sensor_id;sensor_type;location;lat;lon;timestamp;pressure;altitude;pressure_sealevel;temperature;humidity
48352;BME280;34163;49.314;6.752;2024-01-11T08:59:48;100868.63;;;4.24;100.00
48352;BME280;34163;49.314;6.752;2024-01-11T09:02:13;100877.41;;;4.25;100.00
48352;BME280;34163;49.314;6.752;2024-01-11T09:04:39;100873.00;;;4.25;100.00
48352;BME280;34163;49.314;6.752;2024-01-11T09:07:04;100861.50;;;7.40;100.00
48352;BME280;34163;49.314;6.752;2024-01-11T09:09:30;100873.59;;;5.55;100.00
48352;BME280;34163;49.314;6.752;2024-01-11T09:11:55;100872.91;;;5.08;100.00
48352;BME280;34163;49.314;6.752;2024-01-11T09:14:20;100875.63;;;4.64;100.00
48352;BME280;34163;49.314;6.752;2024-01-11T09:16:46;100886.16;;;4.48;100.00
48352;BME280;34163;49.314;6.752;2024-01-11T09:19:14;100871.25;;;4.43;100.00
48352;BME280;34163;49.314;6.752;2024-01-11T09:21:39;100872.13;;;4.43;100.00
48352;BME280;34163;49.314;6.752;2024-01-11T09:24:04;100869.50;;;4.37;100.00
48352;BME280;34163;49.314;6.752;2024-01-11T09:26:29;100870.41;;;4.38;100.00
48352;BME280;34163;49.314;6.752;2024-01-11T09:28:54;100871.25;;;4.35;100.00
48352;BME280;34163;49.314;6.752;2024-01-11T09:31:20;100865.16;;;4.30;100.00
48352;BME280;34163;49.314;6.752;2024-01-11T09:33:45;100863.38;;;4.32;100.00
48352;BME280;34163;49.314;6.752;2024-01-11T09:36:11;100872.16;;;4.32;100.00
48352;BME280;34163;49.314;6.752;2024-01-11T09:38:36;100869.53;;;4.29;100.00
48352;BME280;34163;49.314;6.752;2024-01-11T09:43:28;100873.00;;;4.27;100.00
48352;BME280;34163;49.314;6.752;2024-01-11T09:45:53;100876.50;;;4.27;100.00
48352;BME280;34163;49.314;6.752;2024-01-11T09:48:19;100880.00;;;4.25;100.00
48352;BME280;34163;49.314;6.752;2024-01-11T09:50:45;100873.88;;;4.29;100.00
48352;BME280;34163;49.314;6.752;2024-01-11T09:53:10;100876.50;;;4.29;100.00
48352;BME280;34163;49.314;6.752;2024-01-11T09:55:36;100880.00;;;4.25;100.00
48352;BME280;34163;49.314;6.752;2024-01-11T09:58:02;100880.03;;;4.28;100.00
48352;BME280;34163;49.314;6.752;2024-01-11T10:00:28;100892.25;;;4.27;100.00
48352;BME280;34163;49.314;6.752;2024-01-11T10:02:53;100893.13;;;4.25;100.00
48352;BME280;34163;49.314;6.752;2024-01-11T10:05:18;100886.13;;;4.24;100.00
48352;BME280;34163;49.314;6.752;2024-01-11T10:07:44;100894.00;;;4.30;100.00
48352;BME280;34163;49.314;6.752;2024-01-11T10:10:10;100885.25;;;4.72;100.00
48352;BME280;34163;49.314;6.752;2024-01-11T10:12:36;100873.75;;;5.12;100.00
48352;BME280;34163;49.314;6.752;2024-01-11T10:15:05;100878.94;;;5.34;100.00
48352;BME280;34163;49.314;6.752;2024-01-11T10:20:06;100879.69;;;5.65;100.00
48352;BME280;34163;49.314;6.752;2024-01-11T10:22:35;100879.66;;;5.71;100.00
48352;BME280;34163;49.314;6.752;2024-01-11T10:25:10;100879.56;;;5.82;100.00
48352;BME280;34163;49.314;6.752;2024-01-11T10:27:37;100881.31;;;5.89;100.00
48352;BME280;34163;49.314;6.752;2024-01-11T10:30:02;100883.03;;;5.98;100.00
48352;BME280;34163;49.314;6.752;2024-01-11T10:32:28;100880.38;;;6.03;100.00
48352;BME280;34163;49.314;6.752;2024-01-11T10:34:53;100868.03;;;6.09;100.00
48352;BME280;34163;49.314;6.752;2024-01-11T10:37:19;100869.75;;;6.16;100.00
48352;BME280;34163;49.314;6.752;2024-01-11T10:39:44;100874.97;;;6.21;100.00
48352;BME280;34163;49.314;6.752;2024-01-11T10:42:11;100868.78;;;6.25;100.00
48352;BME280;34163;49.314;6.752;2024-01-11T10:44:37;100869.66;;;6.30;100.00
48352;BME280;34163;49.314;6.752;2024-01-11T10:47:05;100874.91;;;6.33;100.00
48352;BME280;34163;49.314;6.752;2024-01-11T10:49:34;100874.81;;;6.40;100.00
48352;BME280;34163;49.314;6.752;2024-01-11T10:52:03;100869.53;;;6.41;100.00
48352;BME280;34163;49.314;6.752;2024-01-11T10:54:30;100874.75;;;6.46;100.00
48352;BME280;34163;49.314;6.752;2024-01-11T10:56:57;100869.50;;;6.46;100.00
48352;BME280;34163;49.314;6.752;2024-01-11T10:59:24;100867.69;;;6.51;100.00
48352;BME280;34163;49.314;6.752;2024-01-11T11:01:53;100879.06;;;6.58;100.00
48352;BME280;34163;49.314;6.752;2024-01-11T11:04:21;100869.41;;;6.58;100.00
48352;BME280;34163;49.314;6.752;2024-01-11T11:06:48;100862.34;;;6.60;100.00
48352;BME280;34163;49.314;6.752;2024-01-11T11:09:14;100857.97;;;6.61;100.00
48352;BME280;34163;49.314;6.752;2024-01-11T11:11:40;100850.03;;;6.65;100.00
48352;BME280;34163;49.314;6.752;2024-01-11T11:14:05;100835.94;;;6.68;100.00
48352;BME280;34163;49.314;6.752;2024-01-11T11:16:32;100835.06;;;6.70;100.00
48352;BME280;34163;49.314;6.752;2024-01-11T11:18:57;100841.16;;;6.72;100.00
48352;BME280;34163;49.314;6.752;2024-01-11T11:21:23;100838.50;;;6.77;100.00
48352;BME280;34163;49.314;6.752;2024-01-11T11:23:50;100836.72;;;6.78;100.00
48352;BME280;34163;49.314;6.752;2024-01-11T11:26:15;100853.34;;;6.83;100.00
48352;BME280;34163;49.314;6.752;2024-01-11T11:28:41;100863.00;;;6.85;100.00
48352;BME280;34163;49.314;6.752;2024-01-11T11:31:07;100859.50;;;6.85;100.00
48352;BME280;34163;49.314;6.752;2024-01-11T11:33:32;100858.53;;;6.89;100.00
48352;BME280;34163;49.314;6.752;2024-01-11T11:35:57;100856.78;;;6.91;100.00
48352;BME280;34163;49.314;6.752;2024-01-11T11:38:32;100842.72;;;6.92;100.00
48352;BME280;34163;49.314;6.752;2024-01-11T11:40:58;100845.31;;;6.95;100.00
48352;BME280;34163;49.314;6.752;2024-01-11T11:43:26;100827.75;;;6.96;100.00
48352;BME280;34163;49.314;6.752;2024-01-11T11:45:51;100829.47;;;6.98;100.00
48352;BME280;34163;49.314;6.752;2024-01-11T11:51:01;100829.41;;;7.03;100.00
48352;BME280;34163;49.314;6.752;2024-01-11T11:53:29;100828.50;;;7.07;100.00
48352;BME280;34163;49.314;6.752;2024-01-11T11:55:55;100839.91;;;7.09;100.00
48352;BME280;34163;49.314;6.752;2024-01-11T11:58:20;100829.34;;;7.09;100.00
48352;BME280;34163;49.314;6.752;2024-01-11T12:00:45;100840.75;;;7.09;100.00
48352;BME280;34163;49.314;6.752;2024-01-11T12:03:12;100840.75;;;7.11;100.00
48352;BME280;34163;49.314;6.752;2024-01-11T12:05:38;100830.19;;;7.13;100.00
48352;BME280;34163;49.314;6.752;2024-01-11T12:08:03;100841.56;;;7.15;100.00
48352;BME280;34163;49.314;6.752;2024-01-11T12:10:29;100841.53;;;7.18;100.00
48352;BME280;34163;49.314;6.752;2024-01-11T12:12:54;100845.09;;;7.17;100.00
48352;BME280;34163;49.314;6.752;2024-01-11T12:15:19;100834.50;;;7.20;100.00
48352;BME280;34163;49.314;6.752;2024-01-11T12:17:45;100823.97;;;7.20;100.00
48352;BME280;34163;49.314;6.752;2024-01-11T12:20:11;100819.53;;;7.20;100.00
48352;BME280;34163;49.314;6.752;2024-01-11T12:22:37;100810.75;;;7.23;100.00
48352;BME280;34163;49.314;6.752;2024-01-11T12:25:03;100807.19;;;7.24;100.00
48352;BME280;34163;49.314;6.752;2024-01-11T12:27:31;100808.09;;;7.24;100.00
48352;BME280;34163;49.314;6.752;2024-01-11T12:29:57;100804.56;;;7.22;100.00
48352;BME280;34163;49.314;6.752;2024-01-11T12:32:22;100809.81;;;7.25;100.00
48352;BME280;34163;49.314;6.752;2024-01-11T12:34:48;100812.44;;;7.27;100.00
48352;BME280;34163;49.314;6.752;2024-01-11T12:37:15;100815.03;;;7.30;100.00
48352;BME280;34163;49.314;6.752;2024-01-11T12:39:40;100810.63;;;7.31;100.00
48352;BME280;34163;49.314;6.752;2024-01-11T12:42:05;100812.34;;;7.33;100.00
48352;BME280;34163;49.314;6.752;2024-01-11T12:44:31;100807.94;;;7.34;100.00
48352;BME280;34163;49.314;6.752;2024-01-11T12:46:57;100804.41;;;7.35;100.00
48352;BME280;34163;49.314;6.752;2024-01-11T12:49:23;100801.78;;;7.35;100.00
48352;BME280;34163;49.314;6.752;2024-01-11T12:51:50;100803.53;;;7.37;100.00
48352;BME280;34163;49.314;6.752;2024-01-11T12:54:18;100803.53;;;7.37;100.00
48352;BME280;34163;49.314;6.752;2024-01-11T12:56:45;100802.09;;;7.12;100.00
48352;BME280;34163;49.314;6.752;2024-01-11T12:59:10;100806.50;;;6.29;100.00
48352;BME280;34163;49.314;6.752;2024-01-11T13:01:37;100795.31;;;5.96;100.00
48352;BME280;34163;49.314;6.752;2024-01-11T13:04:03;100788.47;;;5.75;100.00
48352;BME280;34163;49.314;6.752;2024-01-11T13:06:29;100793.78;;;5.66;100.00
48352;BME280;34163;49.314;6.752;2024-01-11T13:08:55;100785.97;;;5.53;100.00
48352;BME280;34163;49.314;6.752;2024-01-11T13:11:20;100797.41;;;5.46;100.00
48352;BME280;34163;49.314;6.752;2024-01-11T13:13:46;100791.34;;;5.35;100.00
48352;BME280;34163;49.314;6.752;2024-01-11T13:16:12;100793.09;;;5.31;100.00
48352;BME280;34163;49.314;6.752;2024-01-11T13:18:39;100786.97;;;5.29;100.00
48352;BME280;34163;49.314;6.752;2024-01-11T13:21:04;100785.28;;;5.20;100.00
48352;BME280;34163;49.314;6.752;2024-01-11T13:23:31;100792.28;;;5.17;100.00
48352;BME280;34163;49.314;6.752;2024-01-11T13:25:57;100790.56;;;5.17;100.00
48352;BME280;34163;49.314;6.752;2024-01-11T13:28:22;100792.28;;;5.14;100.00
48352;BME280;34163;49.314;6.752;2024-01-11T13:30:47;100794.97;;;5.09;100.00
48352;BME280;34163;49.314;6.752;2024-01-11T13:33:14;100800.22;;;5.07;100.00
48352;BME280;34163;49.314;6.752;2024-01-11T13:35:42;100797.63;;;5.03;100.00
48352;BME280;34163;49.314;6.752;2024-01-11T13:38:10;100792.38;;;5.03;100.00
48352;BME280;34163;49.314;6.752;2024-01-11T13:40:35;100795.88;;;4.99;100.00
48352;BME280;34163;49.314;6.752;2024-01-11T13:43:00;100793.25;;;4.96;100.00
48352;BME280;34163;49.314;6.752;2024-01-11T13:45:29;100800.28;;;4.97;100.00
48352;BME280;34163;49.314;6.752;2024-01-11T13:47:57;100788.91;;;4.93;100.00
48352;BME280;34163;49.314;6.752;2024-01-11T13:50:22;100801.16;;;4.88;100.00
48352;BME280;34163;49.314;6.752;2024-01-11T13:52:51;100800.28;;;4.90;100.00
48352;BME280;34163;49.314;6.752;2024-01-11T13:55:16;100803.78;;;4.86;100.00
48352;BME280;34163;49.314;6.752;2024-01-11T13:57:43;100811.66;;;4.83;100.00
48352;BME280;34163;49.314;6.752;2024-01-11T14:00:09;100816.06;;;4.80;100.00
48352;BME280;34163;49.314;6.752;2024-01-11T14:02:36;100818.69;;;4.83;100.00
48352;BME280;34163;49.314;6.752;2024-01-11T14:05:02;100816.06;;;4.77;100.00
48352;BME280;34163;49.314;6.752;2024-01-11T14:07:28;100819.59;;;4.77;100.00
48352;BME280;34163;49.314;6.752;2024-01-11T14:09:53;100821.31;;;4.77;100.00
48352;BME280;34163;49.314;6.752;2024-01-11T14:12:18;100821.31;;;4.75;100.00
48352;BME280;34163;49.314;6.752;2024-01-11T14:14:43;100828.34;;;4.76;100.00
48352;BME280;34163;49.314;6.752;2024-01-11T14:17:09;100823.97;;;4.73;100.00
48352;BME280;34163;49.314;6.752;2024-01-11T14:19:34;100820.47;;;4.71;100.00
48352;BME280;34163;49.314;6.752;2024-01-11T14:22:00;100820.47;;;4.70;100.00
48352;BME280;34163;49.314;6.752;2024-01-11T14:24:25;100820.47;;;4.68;100.00
48352;BME280;34163;49.314;6.752;2024-01-11T14:26:51;100823.09;;;4.70;100.00
48352;BME280;34163;49.314;6.752;2024-01-11T14:29:16;100823.09;;;4.71;100.00
48352;BME280;34163;49.314;6.752;2024-01-11T14:31:41;100820.47;;;4.68;100.00
48352;BME280;34163;49.314;6.752;2024-01-11T14:34:07;100821.38;;;4.63;100.00
48352;BME280;34163;49.314;6.752;2024-01-11T14:36:32;100826.63;;;4.61;100.00
48352;BME280;34163;49.314;6.752;2024-01-11T14:38:57;100830.13;;;4.62;100.00
48352;BME280;34163;49.314;6.752;2024-01-11T14:41:22;100825.72;;;4.61;100.00
48352;BME280;34163;49.314;6.752;2024-01-11T14:43:48;100828.38;;;4.56;100.00
48352;BME280;34163;49.314;6.752;2024-01-11T14:46:13;100837.13;;;4.60;100.00
48352;BME280;34163;49.314;6.752;2024-01-11T14:48:38;100824.88;;;4.60;100.00
48352;BME280;34163;49.314;6.752;2024-01-11T14:51:04;100818.75;;;4.55;100.00
48352;BME280;34163;49.314;6.752;2024-01-11T14:53:30;100814.38;;;4.55;100.00
48352;BME280;34163;49.314;6.752;2024-01-11T14:55:55;100811.75;;;4.54;100.00
48352;BME280;34163;49.314;6.752;2024-01-11T14:58:21;100818.75;;;4.53;100.00
48352;BME280;34163;49.314;6.752;2024-01-11T15:00:46;100818.75;;;4.55;100.00
48352;BME280;34163;49.314;6.752;2024-01-11T15:03:15;100817.00;;;4.57;100.00
48352;BME280;34163;49.314;6.752;2024-01-11T15:05:40;100820.50;;;4.56;100.00
48352;BME280;34163;49.314;6.752;2024-01-11T15:08:06;100826.63;;;4.53;100.00
48352;BME280;34163;49.314;6.752;2024-01-11T15:10:31;100832.75;;;4.46;100.00
48352;BME280;34163;49.314;6.752;2024-01-11T15:12:56;100836.25;;;4.50;100.00
48352;BME280;34163;49.314;6.752;2024-01-11T15:15:21;100842.38;;;4.50;100.00
48352;BME280;34163;49.314;6.752;2024-01-11T15:17:47;100847.66;;;4.47;100.00
48352;BME280;34163;49.314;6.752;2024-01-11T15:20:12;100845.03;;;4.47;100.00
48352;BME280;34163;49.314;6.752;2024-01-11T15:22:37;100850.25;;;4.43;100.00
48352;BME280;34163;49.314;6.752;2024-01-11T15:25:02;100851.13;;;4.40;100.00
48352;BME280;34163;49.314;6.752;2024-01-11T15:27:28;100851.13;;;4.43;100.00
48352;BME280;34163;49.314;6.752;2024-01-11T15:29:53;100852.88;;;4.47;100.00
48352;BME280;34163;49.314;6.752;2024-01-11T15:32:18;100859.00;;;4.42;100.00
48352;BME280;34163;49.314;6.752;2024-01-11T15:34:44;100863.38;;;4.41;100.00
48352;BME280;34163;49.314;6.752;2024-01-11T15:37:09;100867.78;;;4.44;100.00
48352;BME280;34163;49.314;6.752;2024-01-11T15:39:34;100865.16;;;4.39;100.00
48352;BME280;34163;49.314;6.752;2024-01-11T15:42:00;100870.41;;;4.36;100.00
48352;BME280;34163;49.314;6.752;2024-01-11T15:44:26;100875.66;;;4.39;100.00
48352;BME280;34163;49.314;6.752;2024-01-11T15:46:51;100877.38;;;4.37;100.00
48352;BME280;34163;49.314;6.752;2024-01-11T15:49:17;100881.75;;;4.36;100.00
48352;BME280;34163;49.314;6.752;2024-01-11T15:51:42;100883.53;;;4.41;100.00
48352;BME280;34163;49.314;6.752;2024-01-11T15:54:07;100876.50;;;4.33;100.00
48352;BME280;34163;49.314;6.752;2024-01-11T15:56:33;100889.63;;;4.35;100.00
48352;BME280;34163;49.314;6.752;2024-01-11T15:58:58;100889.63;;;4.41;100.00
48352;BME280;34163;49.314;6.752;2024-01-11T16:01:23;100879.13;;;4.35;100.00
48352;BME280;34163;49.314;6.752;2024-01-11T16:03:49;100884.38;;;4.35;100.00
48352;BME280;34163;49.314;6.752;2024-01-11T16:06:17;100880.88;;;4.34;100.00
48352;BME280;34163;49.314;6.752;2024-01-11T16:08:42;100880.88;;;4.33;100.00
48352;BME280;34163;49.314;6.752;2024-01-11T16:11:07;100886.13;;;4.36;100.00
48352;BME280;34163;49.314;6.752;2024-01-11T16:13:32;100893.13;;;4.34;100.00
48352;BME280;34163;49.314;6.752;2024-01-11T16:15:58;100888.75;;;4.36;100.00
48352;BME280;34163;49.314;6.752;2024-01-11T16:18:23;100900.13;;;4.35;100.00
48352;BME280;34163;49.314;6.752;2024-01-11T16:20:51;100899.25;;;4.36;100.00
48352;BME280;34163;49.314;6.752;2024-01-11T16:23:17;100894.00;;;4.33;100.00
48352;BME280;34163;49.314;6.752;2024-01-11T16:25:42;100899.25;;;4.31;100.00
48352;BME280;34163;49.314;6.752;2024-01-11T16:28:08;100910.63;;;4.35;100.00
48352;BME280;34163;49.314;6.752;2024-01-11T16:30:33;100904.50;;;4.33;100.00
48352;BME280;34163;49.314;6.752;2024-01-11T16:32:59;100908.84;;;4.34;100.00
48352;BME280;34163;49.314;6.752;2024-01-11T16:35:24;100913.25;;;4.32;100.00
48352;BME280;34163;49.314;6.752;2024-01-11T16:37:50;100914.13;;;4.28;100.00
48352;BME280;34163;49.314;6.752;2024-01-11T16:40:15;100917.63;;;4.27;100.00
48352;BME280;34163;49.314;6.752;2024-01-11T16:42:40;100913.25;;;4.30;100.00
48352;BME280;34163;49.314;6.752;2024-01-11T16:45:06;100911.50;;;4.28;100.00
48352;BME280;34163;49.314;6.752;2024-01-11T16:47:31;100912.38;;;4.28;100.00
48352;BME280;34163;49.314;6.752;2024-01-11T16:50:02;100910.59;;;4.29;100.00
48352;BME280;34163;49.314;6.752;2024-01-11T16:52:29;100915.84;;;4.66;100.00
48352;BME280;34163;49.314;6.752;2024-01-11T16:54:54;100914.94;;;5.04;100.00
48352;BME280;34163;49.314;6.752;2024-01-11T16:57:20;100922.75;;;5.33;100.00
48352;BME280;34163;49.314;6.752;2024-01-11T16:59:45;100920.06;;;5.52;100.00
48352;BME280;34163;49.314;6.752;2024-01-11T17:02:10;100914.75;;;5.62;100.00
48352;BME280;34163;49.314;6.752;2024-01-11T17:04:35;100911.19;;;5.74;100.00
48352;BME280;34163;49.314;6.752;2024-01-11T17:07:00;100904.16;;;5.82;100.00
48352;BME280;34163;49.314;6.752;2024-01-11T17:09:26;100911.97;;;5.90;100.00
48352;BME280;34163;49.314;6.752;2024-01-11T17:11:51;100914.59;;;5.96;100.00
48352;BME280;34163;49.314;6.752;2024-01-11T17:14:16;100909.31;;;6.03;100.00
48352;BME280;34163;49.314;6.752;2024-01-11T17:16:41;100904.88;;;6.09;100.00
48352;BME280;34163;49.314;6.752;2024-01-11T17:19:07;100913.63;;;6.16;100.00
48352;BME280;34163;49.314;6.752;2024-01-11T17:21:32;100913.56;;;6.22;100.00
48352;BME280;34163;49.314;6.752;2024-01-11T17:23:57;100910.03;;;6.25;100.00
48352;BME280;34163;49.314;6.752;2024-01-11T17:26:23;100919.66;;;6.30;100.00
48352;BME280;34163;49.314;6.752;2024-01-11T17:28:48;100911.69;;;6.36;100.00
48352;BME280;34163;49.314;6.752;2024-01-11T17:31:13;100916.94;;;6.40;100.00
48352;BME280;34163;49.314;6.752;2024-01-11T17:33:38;100923.94;;;6.44;100.00
48352;BME280;34163;49.314;6.752;2024-01-11T17:36:04;100928.31;;;6.49;100.00
48352;BME280;34163;49.314;6.752;2024-01-11T17:38:30;100932.63;;;6.55;100.00
48352;BME280;34163;49.314;6.752;2024-01-11T17:40:55;100940.50;;;6.58;100.00
48352;BME280;34163;49.314;6.752;2024-01-11T17:43:20;100944.88;;;6.62;100.00
48352;BME280;34163;49.314;6.752;2024-01-11T17:45:46;100943.97;;;6.65;100.00
48352;BME280;34163;49.314;6.752;2024-01-11T17:48:14;100949.22;;;6.66;100.00
48352;BME280;34163;49.314;6.752;2024-01-11T17:50:39;100952.69;;;6.71;100.00
48352;BME280;34163;49.314;6.752;2024-01-11T17:53:05;100953.56;;;6.73;100.00
48352;BME280;34163;49.314;6.752;2024-01-11T17:55:30;100952.66;;;6.75;100.00
48352;BME280;34163;49.314;6.752;2024-01-11T17:57:55;100947.38;;;6.76;100.00
48352;BME280;34163;49.314;6.752;2024-01-11T18:00:22;100960.47;;;6.84;100.00
48352;BME280;34163;49.314;6.752;2024-01-11T18:02:47;100957.00;;;6.82;100.00
48352;BME280;34163;49.314;6.752;2024-01-11T18:05:12;100961.34;;;6.86;100.00
48352;BME280;34163;49.314;6.752;2024-01-11T18:07:38;100963.06;;;6.88;100.00
48352;BME280;34163;49.314;6.752;2024-01-11T18:10:04;100955.16;;;6.90;100.00
48352;BME280;34163;49.314;6.752;2024-01-11T18:12:30;100959.56;;;6.89;100.00
48352;BME280;34163;49.314;6.752;2024-01-11T18:14:57;100961.25;;;6.95;100.00
48352;BME280;34163;49.314;6.752;2024-01-11T18:17:23;100960.38;;;6.96;100.00
48352;BME280;34163;49.314;6.752;2024-01-11T18:19:48;100959.47;;;6.97;100.00
48352;BME280;34163;49.314;6.752;2024-01-11T18:22:13;100955.09;;;6.99;100.00
48352;BME280;34163;49.314;6.752;2024-01-11T18:24:39;100964.69;;;7.03;100.00
48352;BME280;34163;49.314;6.752;2024-01-11T18:27:04;100959.41;;;7.03;100.00
48352;BME280;34163;49.314;6.752;2024-01-11T18:29:33;100963.81;;;7.04;100.00
48352;BME280;34163;49.314;6.752;2024-01-11T18:31:59;100963.78;;;7.07;100.00
48352;BME280;34163;49.314;6.752;2024-01-11T18:34:24;100965.53;;;7.08;100.00
48352;BME280;34163;49.314;6.752;2024-01-11T18:36:49;100973.44;;;7.10;100.00
48352;BME280;34163;49.314;6.752;2024-01-11T18:39:14;100964.59;;;7.14;100.00
48352;BME280;34163;49.314;6.752;2024-01-11T18:41:40;100968.09;;;7.15;100.00
48352;BME280;34163;49.314;6.752;2024-01-11T18:44:06;100961.94;;;7.16;100.00
48352;BME280;34163;49.314;6.752;2024-01-11T18:46:36;100962.78;;;7.19;100.00
48352;BME280;34163;49.314;6.752;2024-01-11T18:49:02;100963.66;;;7.20;100.00
48352;BME280;34163;49.314;6.752;2024-01-11T18:51:27;100967.16;;;7.22;100.00
48352;BME280;34163;49.314;6.752;2024-01-11T18:53:52;100968.94;;;7.21;100.00
48352;BME280;34163;49.314;6.752;2024-01-11T18:56:17;100961.00;;;7.23;100.00
48352;BME280;34163;49.314;6.752;2024-01-11T18:58:42;100960.09;;;7.24;100.00
48352;BME280;34163;49.314;6.752;2024-01-11T19:01:08;100964.50;;;7.25;100.00
48352;BME280;34163;49.314;6.752;2024-01-11T19:03:34;100966.22;;;7.27;100.00
48352;BME280;34163;49.314;6.752;2024-01-11T19:05:59;100966.19;;;7.29;100.00
48352;BME280;34163;49.314;6.752;2024-01-11T19:08:25;100953.91;;;7.28;100.00
48352;BME280;34163;49.314;6.752;2024-01-11T19:10:53;100957.41;;;7.30;100.00
48352;BME280;34163;49.314;6.752;2024-01-11T19:13:18;100957.38;;;7.32;100.00
48352;BME280;34163;49.314;6.752;2024-01-11T19:15:43;100956.53;;;7.31;100.00
48352;BME280;34163;49.314;6.752;2024-01-11T19:18:08;100953.88;;;7.33;100.00
48352;BME280;34163;49.314;6.752;2024-01-11T19:20:34;100961.78;;;7.33;100.00
48352;BME280;34163;49.314;6.752;2024-01-11T19:22:59;100957.38;;;7.33;100.00
48352;BME280;34163;49.314;6.752;2024-01-11T19:25:24;100957.34;;;7.35;100.00
48352;BME280;34163;49.314;6.752;2024-01-11T19:27:49;100956.47;;;7.37;100.00
48352;BME280;34163;49.314;6.752;2024-01-11T19:30:17;100962.19;;;6.89;100.00
48352;BME280;34163;49.314;6.752;2024-01-11T19:32:42;100960.09;;;6.14;100.00
48352;BME280;34163;49.314;6.752;2024-01-11T19:35:08;100961.09;;;5.88;100.00
48352;BME280;34163;49.314;6.752;2024-01-11T19:37:35;100963.78;;;5.76;100.00
48352;BME280;34163;49.314;6.752;2024-01-11T19:40:00;100962.06;;;5.64;100.00
48352;BME280;34163;49.314;6.752;2024-01-11T19:42:25;100966.50;;;5.54;100.00
48352;BME280;34163;49.314;6.752;2024-01-11T19:44:50;100971.78;;;5.48;100.00
48352;BME280;34163;49.314;6.752;2024-01-11T19:47:15;100975.31;;;5.39;100.00
48352;BME280;34163;49.314;6.752;2024-01-11T19:49:41;100970.94;;;5.31;100.00
48352;BME280;34163;49.314;6.752;2024-01-11T19:52:06;100977.06;;;5.30;100.00
48352;BME280;34163;49.314;6.752;2024-01-11T19:54:31;100970.94;;;5.26;100.00
48352;BME280;34163;49.314;6.752;2024-01-11T19:56:56;100971.84;;;5.20;100.00
48352;BME280;34163;49.314;6.752;2024-01-11T19:59:22;100977.09;;;5.20;100.00
48352;BME280;34163;49.314;6.752;2024-01-11T20:01:49;100974.50;;;5.16;100.00
48352;BME280;34163;49.314;6.752;2024-01-11T20:04:14;100973.63;;;5.09;100.00
48352;BME280;34163;49.314;6.752;2024-01-11T20:06:39;100967.47;;;5.10;100.00
48352;BME280;34163;49.314;6.752;2024-01-11T20:09:06;100973.63;;;5.07;100.00
48352;BME280;34163;49.314;6.752;2024-01-11T20:11:32;100981.50;;;5.00;100.00
48352;BME280;34163;49.314;6.752;2024-01-11T20:13:57;100982.38;;;5.02;100.00
48352;BME280;34163;49.314;6.752;2024-01-11T20:16:22;100983.25;;;4.99;100.00
48352;BME280;34163;49.314;6.752;2024-01-11T20:18:48;100985.00;;;4.96;100.00
48352;BME280;34163;49.314;6.752;2024-01-11T20:21:13;100995.50;;;4.93;100.00
48352;BME280;34163;49.314;6.752;2024-01-11T20:23:41;100990.25;;;4.89;100.00
48352;BME280;34163;49.314;6.752;2024-01-11T20:26:10;100991.16;;;4.87;100.00
48352;BME280;34163;49.314;6.752;2024-01-11T20:28:36;100992.88;;;4.89;100.00
48352;BME280;34163;49.314;6.752;2024-01-11T20:31:01;100996.41;;;4.84;100.00
48352;BME280;34163;49.314;6.752;2024-01-11T20:33:27;100982.38;;;4.83;100.00
48352;BME280;34163;49.314;6.752;2024-01-11T20:35:52;100994.63;;;4.81;100.00
48352;BME280;34163;49.314;6.752;2024-01-11T20:38:18;101000.75;;;4.80;100.00
48352;BME280;34163;49.314;6.752;2024-01-11T20:40:44;100995.53;;;4.77;100.00
48352;BME280;34163;49.314;6.752;2024-01-11T20:43:10;100999.88;;;4.75;100.00
48352;BME280;34163;49.314;6.752;2024-01-11T20:45:36;101004.28;;;4.79;100.00
48352;BME280;34163;49.314;6.752;2024-01-11T20:48:01;100995.53;;;4.72;100.00
48352;BME280;34163;49.314;6.752;2024-01-11T20:50:27;100999.88;;;4.72;100.00
48352;BME280;34163;49.314;6.752;2024-01-11T20:52:53;101001.66;;;4.73;100.00
48352;BME280;34163;49.314;6.752;2024-01-11T20:55:18;100995.53;;;4.71;100.00
48352;BME280;34163;49.314;6.752;2024-01-11T20:57:44;100996.41;;;4.73;100.00
48352;BME280;34163;49.314;6.752;2024-01-11T21:00:09;100992.00;;;4.70;100.00
48352;BME280;34163;49.314;6.752;2024-01-11T21:02:34;100998.16;;;4.71;100.00
48352;BME280;34163;49.314;6.752;2024-01-11T21:05:00;101000.78;;;4.71;100.00
48352;BME280;34163;49.314;6.752;2024-01-11T21:07:25;100999.88;;;4.66;100.00
48352;BME280;34163;49.314;6.752;2024-01-11T21:09:50;101002.53;;;4.64;100.00
48352;BME280;34163;49.314;6.752;2024-01-11T21:12:15;101013.00;;;4.69;100.00
48352;BME280;34163;49.314;6.752;2024-01-11T21:14:41;101011.25;;;4.62;100.00
48352;BME280;34163;49.314;6.752;2024-01-11T21:17:06;101016.50;;;4.60;100.00
48352;BME280;34163;49.314;6.752;2024-01-11T21:19:31;101024.41;;;4.63;100.00
48352;BME280;34163;49.314;6.752;2024-01-11T21:21:56;101019.16;;;4.62;100.00
48352;BME280;34163;49.314;6.752;2024-01-11T21:24:22;101025.25;;;4.58;100.00
48352;BME280;34163;49.314;6.752;2024-01-11T21:26:47;101022.63;;;4.54;100.00
48352;BME280;34163;49.314;6.752;2024-01-11T21:29:12;101018.28;;;4.57;100.00
48352;BME280;34163;49.314;6.752;2024-01-11T21:31:37;101019.13;;;4.55;100.00
48352;BME280;34163;49.314;6.752;2024-01-11T21:34:03;101013.88;;;4.52;100.00
48352;BME280;34163;49.314;6.752;2024-01-11T21:36:29;101013.00;;;4.50;100.00
48352;BME280;34163;49.314;6.752;2024-01-11T21:38:57;101017.38;;;4.53;100.00
48352;BME280;34163;49.314;6.752;2024-01-11T21:41:23;101014.75;;;4.51;100.00
48352;BME280;34163;49.314;6.752;2024-01-11T21:43:52;101012.09;;;4.51;100.00
48352;BME280;34163;49.314;6.752;2024-01-11T21:46:19;100994.63;;;4.50;100.00
48352;BME280;34163;49.314;6.752;2024-01-11T21:48:45;101001.63;;;4.48;100.00